createdAt,value
2019-05-02T00:01:29.183Z,6.13
2019-05-02T00:03:58.684Z,6.67
2019-05-02T00:06:28.354Z,6.53
2019-05-02T00:08:57.642Z,6.77
2019-05-02T00:11:28.597Z,6.77
2019-05-02T00:13:57.841Z,7.20
2019-05-02T00:16:28.141Z,7.43
2019-05-02T00:18:57.686Z,7.10
2019-05-02T00:21:28.427Z,7.30
2019-05-02T00:23:59.136Z,6.50
2019-05-02T00:26:28.501Z,7.27
2019-05-02T00:28:57.945Z,6.90
2019-05-02T00:31:27.507Z,6.83
2019-05-02T00:33:56.606Z,7.43
2019-05-02T00:36:25.805Z,6.90
2019-05-02T00:38:54.941Z,7.13
2019-05-02T00:41:24.081Z,6.87
2019-05-02T00:43:53.222Z,7.20
2019-05-02T00:46:22.480Z,7.47
2019-05-02T00:48:59.641Z,7.43
2019-05-02T00:51:28.765Z,6.53
2019-05-02T00:53:58.168Z,6.50
2019-05-02T00:56:27.320Z,6.07
2019-05-02T00:58:56.459Z,6.77
2019-05-02T01:01:45.065Z,6.73
2019-05-02T01:04:23.254Z,6.57
2019-05-02T01:06:53.669Z,7.17
2019-05-02T01:09:22.800Z,6.73
2019-05-02T01:11:51.947Z,7.13
2019-05-02T01:14:21.094Z,7.07
2019-05-02T01:16:54.421Z,7.60
2019-05-02T01:19:21.436Z,6.40
2019-05-02T01:21:50.655Z,6.90
2019-05-02T01:24:19.781Z,7.50
2019-05-02T01:27:04.660Z,7.30
2019-05-02T01:29:41.703Z,6.73
2019-05-02T01:32:30.073Z,6.40
2019-05-02T01:35:17.269Z,6.73
2019-05-02T01:38:14.680Z,7.10
2019-05-02T01:40:48.109Z,6.53
2019-05-02T01:43:27.260Z,6.43
2019-05-02T01:45:56.425Z,7.13
2019-05-02T01:48:26.291Z,6.80
2019-05-02T01:50:55.451Z,6.60
2019-05-02T01:53:32.332Z,6.37
2019-05-02T01:55:57.725Z,6.90
2019-05-02T01:58:27.756Z,6.97
2019-05-02T02:00:57.005Z,6.80
2019-05-02T02:03:26.146Z,6.37
2019-05-02T02:05:55.463Z,6.20
2019-05-02T02:08:27.365Z,7.40
2019-05-02T02:10:58.128Z,6.63
2019-05-02T02:13:31.235Z,7.10
2019-05-02T02:16:00.142Z,8.03
2019-05-02T02:18:30.354Z,7.27
2019-05-02T02:21:25.668Z,6.43
2019-05-02T02:24:09.277Z,6.43
2019-05-02T02:26:38.497Z,7.33
2019-05-02T02:29:09.199Z,6.80
2019-05-02T02:31:39.716Z,6.80
2019-05-02T02:34:09.463Z,6.57
2019-05-02T02:36:38.635Z,8.00
2019-05-02T02:39:14.213Z,7.53
2019-05-02T02:41:39.297Z,7.30
2019-05-02T02:44:33.562Z,7.07
2019-05-02T02:47:01.079Z,7.20
2019-05-02T02:49:30.205Z,7.33
2019-05-02T02:52:04.684Z,7.23
2019-05-02T02:54:30.427Z,6.83
2019-05-02T02:56:59.612Z,7.30
2019-05-02T02:59:28.743Z,7.23
2019-05-02T03:02:08.653Z,7.37
2019-05-02T03:04:28.884Z,6.53
2019-05-02T03:06:58.095Z,7.10
2019-05-02T03:09:29.058Z,6.13
2019-05-02T03:12:16.248Z,8.07
2019-05-02T03:14:50.281Z,7.27
2019-05-02T03:17:26.538Z,7.10
2019-05-02T03:19:54.370Z,7.33
2019-05-02T03:22:21.492Z,7.53
2019-05-02T03:24:50.679Z,7.17
2019-05-02T03:27:20.073Z,6.73
2019-05-02T03:29:49.432Z,6.70
2019-05-02T03:32:36.483Z,7.63
2019-05-02T03:35:07.042Z,7.30
2019-05-02T03:37:36.278Z,10.93
2019-05-02T03:40:05.973Z,10.13
2019-05-02T03:42:43.682Z,7.93
2019-05-02T03:45:06.151Z,7.60
2019-05-02T03:47:37.078Z,7.87
2019-05-02T03:50:09.469Z,7.23
2019-05-02T03:52:43.460Z,7.17
2019-05-02T03:55:08.579Z,7.37
2019-05-02T03:57:41.734Z,7.10
2019-05-02T04:00:13.817Z,7.53
2019-05-02T04:02:40.028Z,7.03
2019-05-02T04:05:09.422Z,7.90
2019-05-02T04:07:40.583Z,7.47
2019-05-02T04:10:13.382Z,7.43
2019-05-02T04:12:41.632Z,7.13
2019-05-02T04:15:10.806Z,8.00
2019-05-02T04:17:41.846Z,7.10
2019-05-02T04:20:12.703Z,7.77
2019-05-02T04:22:48.505Z,6.97
2019-05-02T04:25:13.339Z,7.40
2019-05-02T04:27:42.954Z,7.70
2019-05-02T04:30:14.185Z,7.30
2019-05-02T04:32:49.628Z,8.00
2019-05-02T04:35:14.941Z,7.83
2019-05-02T04:37:44.130Z,7.07
2019-05-02T04:40:13.324Z,7.20
2019-05-02T04:42:42.426Z,7.33
2019-05-02T04:45:21.701Z,6.80
2019-05-02T04:47:42.780Z,7.67
2019-05-02T04:50:18.223Z,7.50
2019-05-02T04:52:48.338Z,7.67
2019-05-02T04:55:22.995Z,7.40
2019-05-02T04:57:48.060Z,7.60
2019-05-02T05:00:18.815Z,7.57
2019-05-02T05:02:49.668Z,7.83
2019-05-02T05:05:25.662Z,7.60
2019-05-02T05:07:49.870Z,8.63
2019-05-02T05:10:19.055Z,8.50
2019-05-02T05:12:48.232Z,10.20
2019-05-02T05:15:33.760Z,9.63
2019-05-02T05:17:50.080Z,8.50
2019-05-02T05:20:19.232Z,9.97
2019-05-02T05:22:48.600Z,8.40
2019-05-02T05:25:23.246Z,8.47
2019-05-02T05:27:57.236Z,7.43
2019-05-02T05:30:23.373Z,8.30
2019-05-02T05:32:52.557Z,8.23
2019-05-02T05:35:21.711Z,9.37
2019-05-02T05:37:53.143Z,7.70
2019-05-02T05:40:22.756Z,9.10
2019-05-02T05:42:52.780Z,9.13
2019-05-02T05:45:21.945Z,8.97
2019-05-02T05:47:52.493Z,8.63
2019-05-02T05:50:24.358Z,8.77
2019-05-02T05:52:53.588Z,7.70
2019-05-02T05:55:24.388Z,8.90
2019-05-02T05:57:59.955Z,8.20
2019-05-02T06:00:25.075Z,8.50
2019-05-02T06:03:01.367Z,9.00
2019-05-02T06:05:27.177Z,8.60
2019-05-02T06:07:57.534Z,9.03
2019-05-02T06:10:26.785Z,9.57
2019-05-02T06:12:56.257Z,8.40
2019-05-02T06:15:25.419Z,9.33
2019-05-02T06:17:54.671Z,9.17
2019-05-02T06:20:25.710Z,9.47
2019-05-02T06:22:59.553Z,9.57
2019-05-02T06:25:34.017Z,9.67
2019-05-02T06:28:00.235Z,9.77
2019-05-02T06:30:31.042Z,9.73
2019-05-02T06:32:58.790Z,10.73
2019-05-02T06:35:27.934Z,10.23
2019-05-02T06:37:57.129Z,10.70
2019-05-02T06:40:26.385Z,11.47
2019-05-02T06:43:09.710Z,11.30
2019-05-02T06:45:53.279Z,13.33
2019-05-02T06:48:23.547Z,13.43
2019-05-02T06:50:52.693Z,14.07
2019-05-02T06:53:22.109Z,13.07
2019-05-02T06:55:51.343Z,14.97
2019-05-02T06:58:37.113Z,15.13
2019-05-02T07:01:06.640Z,17.00
2019-05-02T07:03:35.965Z,18.43
2019-05-02T07:06:07.622Z,17.03
2019-05-02T07:08:36.220Z,19.93
2019-05-02T07:11:05.576Z,22.87
2019-05-02T07:13:36.287Z,23.97
2019-05-02T07:16:30.310Z,21.63
2019-05-02T07:18:49.963Z,26.33
2019-05-02T07:21:23.240Z,26.70
2019-05-02T07:23:53.529Z,31.70
2019-05-02T07:26:23.086Z,34.80
2019-05-02T07:28:51.883Z,33.80
2019-05-02T07:31:23.558Z,35.33
2019-05-02T07:33:52.792Z,37.50
2019-05-02T07:36:21.994Z,37.63
2019-05-02T07:38:51.158Z,38.50
2019-05-02T07:41:24.100Z,37.13
2019-05-02T07:43:52.157Z,36.20
2019-05-02T07:46:22.448Z,38.70
2019-05-02T07:48:54.482Z,37.80
2019-05-02T07:51:22.796Z,37.50
2019-05-02T07:53:52.002Z,40.60
2019-05-02T07:56:21.152Z,41.37
2019-05-02T07:58:50.328Z,41.37
2019-05-02T08:01:19.525Z,40.77
2019-05-02T08:03:48.711Z,43.90
2019-05-02T08:06:17.903Z,44.33
2019-05-02T08:08:47.100Z,45.80
2019-05-02T08:11:16.370Z,44.57
2019-05-02T08:13:49.521Z,44.87
2019-05-02T08:16:16.451Z,44.07
2019-05-02T08:18:45.743Z,45.67
2019-05-02T08:21:14.958Z,47.40
2019-05-02T08:23:44.128Z,46.70
2019-05-02T08:26:16.305Z,46.80
2019-05-02T08:28:56.255Z,45.63
2019-05-02T08:31:25.480Z,46.17
2019-05-02T08:33:54.742Z,44.57
2019-05-02T08:36:23.990Z,47.53
2019-05-02T08:38:54.064Z,45.73
2019-05-02T08:41:24.154Z,46.47
2019-05-02T08:43:53.343Z,41.47
2019-05-02T08:46:22.553Z,48.33
2019-05-02T08:48:51.762Z,52.63
2019-05-02T08:51:21.197Z,45.90
2019-05-02T08:53:52.116Z,46.03
2019-05-02T08:56:21.767Z,44.07
2019-05-02T08:58:52.193Z,44.77
2019-05-02T09:01:34.304Z,44.60
2019-05-02T09:03:56.914Z,46.33
2019-05-02T09:06:24.185Z,43.30
2019-05-02T09:08:53.475Z,45.80
2019-05-02T09:11:22.677Z,45.57
2019-05-02T09:13:52.579Z,46.07
2019-05-02T09:16:28.656Z,46.80
2019-05-02T09:18:54.143Z,46.23
2019-05-02T09:21:26.840Z,44.20
2019-05-02T09:23:54.433Z,45.17
2019-05-02T09:26:35.031Z,46.60
2019-05-02T09:28:56.327Z,46.23
2019-05-02T09:31:25.654Z,46.47
2019-05-02T09:33:55.679Z,47.73
2019-05-02T09:36:25.163Z,44.33
2019-05-02T09:38:57.551Z,43.93
2019-05-02T09:41:27.034Z,48.40
2019-05-02T09:43:56.564Z,45.10
2019-05-02T09:46:25.848Z,45.98
2019-05-02T09:48:57.121Z,46.42
2019-05-02T09:51:25.999Z,50.43
2019-05-02T09:53:57.018Z,44.27
2019-05-02T09:56:26.072Z,45.90
2019-05-02T09:59:06.315Z,44.67
2019-05-02T10:01:45.792Z,45.70
2019-05-02T10:04:15.022Z,46.30
2019-05-02T10:06:44.205Z,45.57
2019-05-02T10:09:13.395Z,41.93
2019-05-02T10:11:42.678Z,42.38
2019-05-02T10:14:12.861Z,42.48
2019-05-02T10:16:42.598Z,42.95
2019-05-02T10:19:13.565Z,39.10
2019-05-02T10:21:47.052Z,40.43
2019-05-02T10:24:14.245Z,38.33
2019-05-02T10:26:43.414Z,38.58
2019-05-02T10:29:12.835Z,37.08
2019-05-02T10:31:42.385Z,40.80
2019-05-02T10:34:16.275Z,40.92
2019-05-02T10:36:45.216Z,39.38
2019-05-02T10:39:15.843Z,39.18
2019-05-02T10:41:45.009Z,38.98
2019-05-02T10:44:14.207Z,35.35
2019-05-02T10:46:57.768Z,36.90
2019-05-02T10:49:32.192Z,35.73
2019-05-02T10:52:02.589Z,36.58
2019-05-02T10:54:33.826Z,34.73
2019-05-02T10:57:02.779Z,35.95
2019-05-02T10:59:32.794Z,34.50
2019-05-02T11:02:10.307Z,37.00
2019-05-02T11:04:44.173Z,34.15
2019-05-02T11:07:17.079Z,36.75
2019-05-02T11:09:44.378Z,34.63
2019-05-02T11:12:24.297Z,32.93
2019-05-02T11:15:02.170Z,33.90
2019-05-02T11:17:36.477Z,33.88
2019-05-02T11:20:09.015Z,33.60
2019-05-02T11:22:38.285Z,32.38
2019-05-02T11:25:07.559Z,34.48
2019-05-02T11:27:36.875Z,33.28
2019-05-02T11:30:07.474Z,35.35
2019-05-02T11:32:41.634Z,34.88
2019-05-02T11:35:12.199Z,33.48
2019-05-02T11:37:42.262Z,34.98
2019-05-02T11:40:12.888Z,31.35
2019-05-02T11:42:42.230Z,32.45
2019-05-02T11:45:12.209Z,31.70
2019-05-02T11:47:42.273Z,29.65
2019-05-02T11:50:12.019Z,35.30
2019-05-02T11:52:42.431Z,32.42
2019-05-02T11:55:12.977Z,28.45
2019-05-02T11:57:42.706Z,27.35
2019-05-02T12:00:12.772Z,28.60
2019-05-02T12:03:04.014Z,27.32
2019-05-02T12:05:39.284Z,26.65
2019-05-02T12:08:09.592Z,26.35
2019-05-02T12:10:39.607Z,27.45
2019-05-02T12:13:11.921Z,26.90
2019-05-02T12:15:42.121Z,27.30
2019-05-02T12:18:12.092Z,26.45
2019-05-02T12:20:42.536Z,25.48
2019-05-02T12:23:13.007Z,26.70
2019-05-02T12:25:42.531Z,27.27
2019-05-02T12:28:12.109Z,24.32
2019-05-02T12:30:42.064Z,23.27
2019-05-02T12:33:12.394Z,26.17
2019-05-02T12:35:43.269Z,24.67
2019-05-02T12:38:12.868Z,23.05
2019-05-02T12:40:42.336Z,21.27
2019-05-02T12:43:12.737Z,21.15
2019-05-02T12:45:42.262Z,22.70
2019-05-02T12:48:12.952Z,21.37
2019-05-02T12:50:42.296Z,20.20
2019-05-02T12:53:12.603Z,19.92
2019-05-02T12:55:42.253Z,20.32
2019-05-02T12:58:12.703Z,20.02
2019-05-02T13:00:43.079Z,19.85
2019-05-02T13:03:31.804Z,21.75
2019-05-02T13:06:03.172Z,19.12
2019-05-02T13:08:32.417Z,20.62
2019-05-02T13:11:22.250Z,20.02
2019-05-02T13:13:53.330Z,18.32
2019-05-02T13:16:22.766Z,17.90
2019-05-02T13:18:52.080Z,18.95
2019-05-02T13:21:41.464Z,20.92
2019-05-02T13:24:27.309Z,21.05
2019-05-02T13:26:59.401Z,19.70
2019-05-02T13:29:24.963Z,20.72
2019-05-02T13:32:19.024Z,19.75
2019-05-02T13:35:12.718Z,20.15
2019-05-02T13:37:42.483Z,19.40
2019-05-02T13:40:22.590Z,20.30
2019-05-02T13:42:52.351Z,20.90
2019-05-02T13:45:34.823Z,20.62
2019-05-02T13:48:04.352Z,19.00
2019-05-02T13:50:33.563Z,20.55
2019-05-02T13:53:03.210Z,21.77
2019-05-02T13:55:37.450Z,19.27
2019-05-02T13:58:06.608Z,16.60
2019-05-02T14:00:44.405Z,15.48
2019-05-02T14:03:13.905Z,15.98
2019-05-02T14:05:50.759Z,16.52
2019-05-02T14:08:37.947Z,17.42
2019-05-02T14:11:43.381Z,17.27
2019-05-02T14:14:12.474Z,15.83
2019-05-02T14:16:42.062Z,15.72
2019-05-02T14:19:12.632Z,15.93
2019-05-02T14:21:42.217Z,15.53
2019-05-02T14:24:11.868Z,14.73
2019-05-02T14:26:43.259Z,14.18
2019-05-02T14:29:16.104Z,14.73
2019-05-02T14:31:43.033Z,17.35
2019-05-02T14:34:42.586Z,14.50
2019-05-02T14:37:11.975Z,14.30
2019-05-02T14:39:41.812Z,14.15
2019-05-02T14:42:15.300Z,12.63
2019-05-02T14:45:04.071Z,11.18
2019-05-02T14:47:18.151Z,12.85
2019-05-02T14:49:44.625Z,11.12
2019-05-02T14:52:13.813Z,11.08
2019-05-02T14:54:47.781Z,11.28
2019-05-02T14:57:17.032Z,11.95
2019-05-02T14:59:50.408Z,10.55
2019-05-02T15:02:39.267Z,11.25
2019-05-02T15:05:08.838Z,10.23
2019-05-02T15:07:38.528Z,10.58
2019-05-02T15:10:08.005Z,12.00
2019-05-02T15:12:37.353Z,11.22
2019-05-02T15:15:08.951Z,10.10
2019-05-02T15:17:41.883Z,10.13
2019-05-02T15:20:12.988Z,9.98
2019-05-02T15:22:42.550Z,9.23
2019-05-02T15:25:13.559Z,9.13
2019-05-02T15:27:45.143Z,9.03
2019-05-02T15:30:15.962Z,8.80
2019-05-02T15:32:54.748Z,8.60
2019-05-02T15:35:28.381Z,8.30
2019-05-02T15:38:02.611Z,8.95
2019-05-02T15:43:02.419Z,8.67
2019-05-02T15:45:29.310Z,7.67
2019-05-02T15:47:58.682Z,8.33
2019-05-02T15:50:29.097Z,8.37
2019-05-02T15:53:17.513Z,8.67
2019-05-02T15:55:46.901Z,8.60
2019-05-02T15:58:22.948Z,8.57
2019-05-02T16:00:56.607Z,7.93
2019-05-02T16:03:45.475Z,8.47
2019-05-02T16:06:16.360Z,9.07
2019-05-02T16:08:46.421Z,8.67
2019-05-02T16:11:17.342Z,9.37
2019-05-02T16:13:52.738Z,8.60
2019-05-02T16:16:18.947Z,10.27
2019-05-02T16:18:48.128Z,10.40
2019-05-02T16:21:28.436Z,10.43
2019-05-02T16:24:14.717Z,10.77
2019-05-02T16:26:46.758Z,9.53
2019-05-02T16:29:19.472Z,7.40
2019-05-02T16:31:47.321Z,6.43
2019-05-02T16:34:16.599Z,8.93
2019-05-02T16:36:45.774Z,9.67
2019-05-02T16:39:15.398Z,11.17
2019-05-02T16:41:49.074Z,11.90
2019-05-02T16:44:15.729Z,11.63
2019-05-02T16:46:44.995Z,13.10
2019-05-02T16:49:17.083Z,13.17
2019-05-02T16:51:45.525Z,13.40
2019-05-02T16:54:14.743Z,13.33
2019-05-02T16:56:45.922Z,13.20
2019-05-02T16:59:16.980Z,14.50
2019-05-02T17:01:47.496Z,13.23
2019-05-02T17:04:16.920Z,14.93
2019-05-02T17:06:46.269Z,14.17
2019-05-02T17:09:28.797Z,14.33
2019-05-02T17:11:59.311Z,14.13
2019-05-02T17:14:28.620Z,14.03
2019-05-02T17:16:58.982Z,14.00
2019-05-02T17:19:33.357Z,13.90
2019-05-02T17:21:59.141Z,14.03
2019-05-02T17:24:28.578Z,13.50
2019-05-02T17:26:57.852Z,13.30
2019-05-02T17:29:27.173Z,13.20
2019-05-02T17:31:59.242Z,12.60
2019-05-02T17:34:30.242Z,12.93
2019-05-02T17:36:59.187Z,13.30
2019-05-02T17:39:30.890Z,11.77
2019-05-02T17:42:00.934Z,12.43
2019-05-02T17:44:31.097Z,12.03
2019-05-02T17:47:01.798Z,12.37
2019-05-02T17:49:36.679Z,13.37
2019-05-02T17:52:26.885Z,13.97
2019-05-02T17:54:57.376Z,13.90
2019-05-02T17:57:28.649Z,14.33
2019-05-02T17:59:57.707Z,13.33
2019-05-02T18:02:26.939Z,14.97
2019-05-02T18:04:56.099Z,14.13
2019-05-02T18:07:31.920Z,13.23
2019-05-02T18:09:56.208Z,14.03
2019-05-02T18:12:25.714Z,14.30
2019-05-02T18:14:59.084Z,14.00
2019-05-02T18:17:27.579Z,13.93
2019-05-02T18:20:02.212Z,13.53
2019-05-02T18:22:28.088Z,13.70
2019-05-02T18:24:57.385Z,13.40
2019-05-02T18:27:26.673Z,13.67
2019-05-02T18:29:55.955Z,13.87
2019-05-02T18:32:26.248Z,13.50
2019-05-02T18:34:56.906Z,14.70
2019-05-02T18:37:26.531Z,14.33
2019-05-02T18:39:56.118Z,15.07
2019-05-02T18:42:25.686Z,16.13
2019-05-02T18:44:54.934Z,15.17
2019-05-02T18:47:24.890Z,17.17
2019-05-02T18:50:00.671Z,16.57
2019-05-02T18:52:35.648Z,17.07
2019-05-02T18:54:56.215Z,17.37
2019-05-02T18:57:26.077Z,18.43
2019-05-02T18:59:56.458Z,18.53
2019-05-02T19:02:31.181Z,20.07
2019-05-02T19:04:57.327Z,19.83
2019-05-02T19:07:33.209Z,20.57
2019-05-02T19:09:58.846Z,20.70
2019-05-02T19:12:28.614Z,21.20
2019-05-02T19:15:03.171Z,21.73
2019-05-02T19:17:28.797Z,22.60
2019-05-02T19:19:58.168Z,21.57
2019-05-02T19:22:27.363Z,22.67
2019-05-02T19:24:56.720Z,25.53
2019-05-02T19:27:43.622Z,22.87
2019-05-02T19:30:13.413Z,23.83
2019-05-02T19:32:42.611Z,24.77
2019-05-02T19:35:11.904Z,24.77
2019-05-02T19:37:46.040Z,26.37
2019-05-02T19:40:14.923Z,24.97
2019-05-02T19:42:45.033Z,25.57
2019-05-02T19:45:16.880Z,27.50
2019-05-02T19:48:04.230Z,27.40
2019-05-02T19:50:43.983Z,27.17
2019-05-02T19:53:18.124Z,26.53
2019-05-02T19:55:43.065Z,26.07
2019-05-02T19:58:12.493Z,24.93
2019-05-02T20:00:46.081Z,27.63
2019-05-02T20:03:13.697Z,27.33
2019-05-02T20:05:43.917Z,27.60
2019-05-02T20:08:14.827Z,26.83
2019-05-02T20:10:44.024Z,28.20
2019-05-02T20:13:13.366Z,28.77
2019-05-02T20:15:47.122Z,26.47
2019-05-02T20:18:16.305Z,26.73
2019-05-02T20:21:06.383Z,27.50
2019-05-02T20:23:35.904Z,28.40
2019-05-02T20:26:09.400Z,27.80
2019-05-02T20:28:36.189Z,30.17
2019-05-02T20:31:05.517Z,29.20
2019-05-02T20:33:34.853Z,30.20
2019-05-02T20:36:04.179Z,30.47
2019-05-02T20:38:33.403Z,27.97
2019-05-02T20:41:03.023Z,29.27
2019-05-02T20:43:32.479Z,30.43
2019-05-02T20:46:02.640Z,29.43
2019-05-02T20:48:32.365Z,30.57
2019-05-02T20:51:02.717Z,28.40
2019-05-02T20:53:34.183Z,30.47
2019-05-02T20:56:02.899Z,30.80
2019-05-02T20:58:32.604Z,29.53
2019-05-02T21:01:08.562Z,29.80
2019-05-02T21:03:32.772Z,29.43
2019-05-02T21:06:12.228Z,29.50
2019-05-02T21:09:02.221Z,27.60
2019-05-02T21:11:32.394Z,29.83
2019-05-02T21:14:01.834Z,29.07
2019-05-02T21:16:32.247Z,29.10
2019-05-02T21:19:02.236Z,29.27
2019-05-02T21:21:32.919Z,31.20
2019-05-02T21:24:02.196Z,30.13
2019-05-02T21:26:32.873Z,30.90
2019-05-02T21:29:02.204Z,31.70
2019-05-02T21:31:31.898Z,33.43
2019-05-02T21:34:02.585Z,32.37
2019-05-02T21:36:32.061Z,32.83
2019-05-02T21:39:02.776Z,33.57
2019-05-02T21:41:33.078Z,33.47
2019-05-02T21:44:02.555Z,32.23
2019-05-02T21:46:31.902Z,34.00
2019-05-02T21:49:01.181Z,33.57
2019-05-02T21:51:46.483Z,34.50
2019-05-02T21:54:25.732Z,36.33
2019-05-02T21:57:02.636Z,37.70
2019-05-02T21:59:31.874Z,35.70
2019-05-02T22:02:02.401Z,35.40
2019-05-02T22:04:31.917Z,38.20
2019-05-02T22:07:01.050Z,37.80
2019-05-02T22:09:32.165Z,35.77
2019-05-02T22:12:01.572Z,37.20
2019-05-02T22:14:32.712Z,35.33
2019-05-02T22:17:02.301Z,37.60
2019-05-02T22:19:32.306Z,38.53
2019-05-02T22:22:01.736Z,35.67
2019-05-02T22:24:30.848Z,39.47
2019-05-02T22:27:01.802Z,35.50
2019-05-02T22:29:32.412Z,36.70
2019-05-02T22:32:02.999Z,39.77
2019-05-02T22:34:32.689Z,36.80
2019-05-02T22:37:02.573Z,40.67
2019-05-02T22:39:52.264Z,40.33
2019-05-02T22:42:21.916Z,41.87
2019-05-02T22:44:51.239Z,42.50
2019-05-02T22:47:22.597Z,37.63
2019-05-02T22:49:51.842Z,40.57
2019-05-02T22:52:21.792Z,39.83
2019-05-02T22:54:52.340Z,42.20
2019-05-02T22:57:22.609Z,42.00
2019-05-02T22:59:51.782Z,42.13
2019-05-02T23:02:21.971Z,45.00
2019-05-02T23:04:52.695Z,42.47
2019-05-02T23:07:22.296Z,41.50
2019-05-02T23:09:52.683Z,40.43
2019-05-02T23:12:24.622Z,40.77
2019-05-02T23:14:52.914Z,41.63
2019-05-02T23:17:23.164Z,40.80
2019-05-02T23:19:52.831Z,42.20
2019-05-02T23:22:22.014Z,38.93
2019-05-02T23:25:25.503Z,40.70
2019-05-02T23:27:58.336Z,41.20
2019-05-02T23:30:27.540Z,42.63
2019-05-02T23:32:56.732Z,41.67
2019-05-02T23:35:25.888Z,41.07
2019-05-02T23:37:55.044Z,43.27
2019-05-02T23:40:24.389Z,42.40
2019-05-02T23:42:53.559Z,44.07
2019-05-02T23:45:22.750Z,43.77
2019-05-02T23:47:52.773Z,43.87
2019-05-02T23:50:22.843Z,42.20
2019-05-02T23:52:52.205Z,42.73
2019-05-02T23:55:22.830Z,41.03
2019-05-02T23:57:52.374Z,41.67
